Time;durP1;ratioP1;P1;durP2;ratioP2;P2;SDS_P1;SDS_P2;PMS_P1;PMS_P2;Temp;Humidity;BMP_temperature;BMP_pressure;BME280_temperature;BME280_humidity;BME280_pressure;Samples;Min_cycle;Max_cycle;Signal;HPM_P1;HPM_P2
2022/05/07 00:01:39;;;;;;;34.25;24.63;;;11.70;99.90;;;;;;5053560;28;20403;-77
2022/05/07 00:04:05;;;;;;;39.78;24.63;;;12.00;99.90;;;;;;5050531;28;20174;-76
2022/05/07 00:06:31;;;;;;;36.75;24.35;;;11.60;99.90;;;;;;5047366;28;20063;-76
2022/05/07 00:08:56;;;;;;;41.50;26.15;;;11.70;99.90;;;;;;5071280;28;20051;-77
2022/05/07 00:11:22;;;;;;;37.63;24.80;;;11.80;99.90;;;;;;5071359;28;20494;-76
2022/05/07 00:13:49;;;;;;;34.60;23.63;;;11.70;99.90;;;;;;5053023;28;20047;-75
2022/05/07 00:18:58;;;;;;;48.53;29.77;;;11.80;99.90;;;;;;5052822;28;20131;-76
2022/05/07 00:21:24;;;;;;;45.78;27.58;;;12.00;99.90;;;;;;5070905;28;20202;-76
2022/05/07 00:23:49;;;;;;;41.10;27.17;;;11.80;99.90;;;;;;5070797;28;20055;-76
2022/05/07 00:26:15;;;;;;;44.03;28.55;;;12.10;99.90;;;;;;5071049;28;20048;-76
2022/05/07 00:28:41;;;;;;;46.53;28.83;;;11.90;99.90;;;;;;5062091;28;20048;-75
2022/05/07 00:31:06;;;;;;;45.20;27.80;;;11.80;99.90;;;;;;5070928;28;20392;-75
2022/05/07 00:33:32;;;;;;;42.83;26.52;;;11.90;99.90;;;;;;5070819;28;20135;-76
2022/05/07 00:35:58;;;;;;;42.17;27.08;;;11.90;99.90;;;;;;5070670;28;20103;-77
2022/05/07 00:38:23;;;;;;;44.80;27.20;;;11.90;99.90;;;;;;5051865;28;20060;-76
2022/05/07 00:40:50;;;;;;;51.75;30.70;;;11.90;99.90;;;;;;5070600;28;20048;-77
2022/05/07 00:43:17;;;;;;;51.63;31.13;;;11.90;99.90;;;;;;5052767;28;20045;-75
2022/05/07 00:45:45;;;;;;;46.97;30.45;;;12.00;99.90;;;;;;5070860;28;20048;-76
2022/05/07 00:48:13;;;;;;;48.70;28.30;;;12.10;99.90;;;;;;5051962;28;20399;-76
2022/05/07 00:53:24;;;;;;;52.15;30.52;;;12.20;99.90;;;;;;5090798;28;20051;-76
2022/05/07 00:55:51;;;;;;;58.97;32.97;;;12.10;99.90;;;;;;5090712;28;20047;-76
2022/05/07 00:58:18;;;;;;;49.40;31.00;;;12.00;99.90;;;;;;5089111;28;20110;-74
2022/05/07 01:00:44;;;;;;;44.67;31.77;;;12.10;99.90;;;;;;5072476;28;20051;-76
2022/05/07 01:03:10;;;;;;;49.55;30.55;;;12.30;99.90;;;;;;5072452;28;20044;-76
2022/05/07 01:05:35;;;;;;;51.05;30.70;;;12.10;99.90;;;;;;5072206;28;20035;-76
2022/05/07 01:08:01;;;;;;;47.42;29.90;;;12.10;99.90;;;;;;5090828;28;20044;-76
2022/05/07 01:10:28;;;;;;;56.95;32.08;;;12.00;99.90;;;;;;5060361;28;20462;-76
2022/05/07 01:12:57;;;;;;;52.13;31.27;;;12.10;99.90;;;;;;5090538;28;20048;-76
2022/05/07 01:15:24;;;;;;;52.70;31.80;;;12.10;99.90;;;;;;5090648;28;20126;-76
2022/05/07 01:17:50;;;;;;;52.80;31.75;;;12.10;99.90;;;;;;5090638;28;20047;-76
2022/05/07 01:20:16;;;;;;;48.17;30.48;;;12.10;99.90;;;;;;5088378;28;20048;-77
2022/05/07 01:22:42;;;;;;;49.63;30.75;;;12.10;99.90;;;;;;5090733;28;20127;-75
2022/05/07 01:25:08;;;;;;;49.63;31.73;;;12.10;99.90;;;;;;5090362;28;20489;-76
2022/05/07 01:27:34;;;;;;;45.40;29.92;;;12.10;99.90;;;;;;5090444;28;20050;-76
2022/05/07 01:29:59;;;;;;;46.95;30.30;;;12.10;99.90;;;;;;5072222;28;20044;-76
2022/05/07 01:32:25;;;;;;;48.28;29.67;;;12.30;99.90;;;;;;5070854;28;20053;-75
2022/05/07 01:34:53;;;;;;;47.10;29.65;;;12.10;99.90;;;;;;5070389;28;20124;-76
2022/05/07 01:37:19;;;;;;;55.05;32.25;;;12.10;99.90;;;;;;5052031;28;20049;-77
2022/05/07 01:39:45;;;;;;;45.60;29.58;;;12.20;99.90;;;;;;5070066;28;20755;-76
2022/05/07 01:42:11;;;;;;;44.08;28.08;;;12.20;99.90;;;;;;5034267;28;20064;-75
2022/05/07 01:44:36;;;;;;;47.53;30.17;;;12.20;99.90;;;;;;5052008;28;20399;-76
2022/05/07 01:49:47;;;;;;;44.38;28.85;;;12.20;99.90;;;;;;5070091;28;20057;-76
2022/05/07 01:52:14;;;;;;;46.30;29.63;;;12.20;99.90;;;;;;5069186;28;20051;-76
2022/05/07 01:54:39;;;;;;;44.20;28.40;;;12.20;99.90;;;;;;5070010;28;20391;-75
2022/05/07 01:57:05;;;;;;;43.72;28.77;;;12.20;99.90;;;;;;5070301;28;20124;-75
2022/05/07 01:59:31;;;;;;;46.92;30.92;;;12.40;99.90;;;;;;5070236;28;20450;-76
2022/05/07 02:01:56;;;;;;;46.00;29.50;;;12.20;99.90;;;;;;5068849;28;20450;-77
2022/05/07 02:04:22;;;;;;;49.13;29.75;;;12.30;99.90;;;;;;5050804;28;20045;-76
2022/05/07 02:06:48;;;;;;;43.42;29.58;;;12.40;99.90;;;;;;5051633;28;20406;-76
2022/05/07 02:09:14;;;;;;;45.97;28.50;;;12.30;99.90;;;;;;5069701;28;20444;-76
2022/05/07 02:11:40;;;;;;;37.78;27.52;;;12.40;99.90;;;;;;5069374;28;20118;-76
2022/05/07 02:14:05;;;;;;;45.00;29.35;;;12.30;99.90;;;;;;5050398;28;20500;-75
2022/05/07 02:16:31;;;;;;;47.58;29.70;;;12.30;99.90;;;;;;5051563;28;20059;-76
2022/05/07 02:18:57;;;;;;;43.28;29.23;;;12.20;99.90;;;;;;5051982;28;20059;-76
2022/05/07 02:21:23;;;;;;;43.70;27.17;;;12.30;99.90;;;;;;5051152;28;20045;-76
2022/05/07 02:23:49;;;;;;;44.97;28.73;;;12.20;99.90;;;;;;5050928;28;20044;-76
2022/05/07 02:26:14;;;;;;;49.55;29.33;;;12.20;99.90;;;;;;5069058;28;20049;-76
2022/05/07 02:28:40;;;;;;;42.50;28.75;;;12.20;99.90;;;;;;5068253;28;20124;-76
2022/05/07 02:31:05;;;;;;;46.20;28.55;;;12.20;99.90;;;;;;5066872;28;20127;-76
2022/05/07 02:33:31;;;;;;;39.78;28.05;;;12.30;99.90;;;;;;5067841;28;20091;-76
2022/05/07 02:35:57;;;;;;;42.75;29.50;;;12.60;99.90;;;;;;5069584;28;20527;-76
2022/05/07 02:38:22;;;;;;;44.30;29.35;;;12.20;99.90;;;;;;5051451;28;20487;-76
2022/05/07 02:43:32;;;;;;;43.85;27.80;;;12.30;99.90;;;;;;5049267;28;20127;-76
2022/05/07 02:45:57;;;;;;;41.53;28.52;;;12.20;99.90;;;;;;5069153;28;20115;-77
2022/05/07 02:48:25;;;;;;;43.45;29.38;;;12.40;99.90;;;;;;5053946;28;20054;-76
2022/05/07 02:50:51;;;;;;;43.35;28.60;;;12.30;99.90;;;;;;5088715;28;20058;-76
2022/05/07 02:53:16;;;;;;;40.00;27.95;;;12.30;99.90;;;;;;5092398;28;20135;-76
2022/05/07 02:55:42;;;;;;;39.20;28.98;;;12.30;99.90;;;;;;5091172;28;20070;-76
2022/05/07 02:58:08;;;;;;;36.63;26.77;;;12.40;99.90;;;;;;5074647;28;20058;-76
2022/05/07 03:00:34;;;;;;;40.60;27.05;;;12.30;99.90;;;;;;5092380;28;20052;-76
2022/05/07 03:03:00;;;;;;;43.25;26.33;;;12.30;99.90;;;;;;5092542;28;20048;-76
2022/05/07 03:05:25;;;;;;;42.05;27.30;;;12.30;99.90;;;;;;5091027;28;20114;-76
2022/05/07 03:07:53;;;;;;;39.88;27.40;;;12.10;99.90;;;;;;5074339;28;20050;-77
2022/05/07 03:10:18;;;;;;;41.05;27.27;;;12.00;99.90;;;;;;5092665;28;20510;-76
2022/05/07 03:12:44;;;;;;;43.08;28.45;;;12.00;99.90;;;;;;5056951;28;20052;-76
2022/05/07 03:15:10;;;;;;;41.50;27.70;;;12.00;99.90;;;;;;5072179;28;20100;-76
2022/05/07 03:17:36;;;;;;;36.05;27.70;;;12.30;99.90;;;;;;5072488;28;20079;-76
2022/05/07 03:20:06;;;;;;;37.67;27.48;;;11.90;99.90;;;;;;5054351;28;20411;-76
2022/05/07 03:22:31;;;;;;;38.30;28.05;;;11.90;99.90;;;;;;5071969;28;20520;-76
2022/05/07 03:24:57;;;;;;;35.67;25.10;;;12.00;99.90;;;;;;5054006;28;20048;-76
2022/05/07 03:27:22;;;;;;;35.53;25.63;;;12.20;99.90;;;;;;5050515;28;20053;-75
2022/05/07 03:29:48;;;;;;;38.97;26.23;;;12.00;99.90;;;;;;5084478;28;20453;-76
2022/05/07 03:32:14;;;;;;;35.85;26.55;;;12.00;99.90;;;;;;5092400;28;20040;-77
2022/05/07 03:34:39;;;;;;;34.97;25.65;;;12.00;99.90;;;;;;5092329;28;20047;-77
2022/05/07 03:37:05;;;;;;;36.55;25.88;;;11.90;99.90;;;;;;5092186;28;20089;-76
2022/05/07 03:39:31;;;;;;;32.88;26.13;;;11.90;99.90;;;;;;5071692;28;20105;-76
2022/05/07 03:41:57;;;;;;;31.65;25.48;;;11.80;99.90;;;;;;5073543;28;20091;-76
2022/05/07 03:44:22;;;;;;;33.22;25.48;;;12.10;99.90;;;;;;5074205;28;20083;-76
2022/05/07 03:46:48;;;;;;;34.13;25.30;;;11.80;99.90;;;;;;5091725;28;20556;-75
2022/05/07 03:49:14;;;;;;;33.45;24.80;;;11.80;99.90;;;;;;5090536;28;20106;-76
2022/05/07 03:54:24;;;;;;;36.00;26.10;;;11.70;99.90;;;;;;5091727;28;20044;-76
2022/05/07 03:56:49;;;;;;;35.33;25.58;;;11.70;99.90;;;;;;5091949;28;20044;-76
2022/05/07 03:59:15;;;;;;;35.35;25.13;;;11.70;99.90;;;;;;5091196;28;20483;-76
2022/05/07 04:01:41;;;;;;;35.92;26.25;;;11.80;99.90;;;;;;5062580;28;20083;-76
2022/05/07 04:04:06;;;;;;;36.60;26.88;;;11.70;99.90;;;;;;5090405;28;20050;-75
2022/05/07 04:06:32;;;;;;;30.60;23.65;;;11.70;99.90;;;;;;5091514;28;20097;-75
2022/05/07 04:08:57;;;;;;;29.42;23.58;;;11.90;99.90;;;;;;5073432;28;20078;-75
2022/05/07 04:11:23;;;;;;;30.92;23.83;;;11.80;99.90;;;;;;5089641;28;20050;-76
2022/05/07 04:13:49;;;;;;;31.88;22.42;;;11.90;99.90;;;;;;5091388;28;20544;-76
2022/05/07 04:16:14;;;;;;;34.53;24.05;;;11.80;99.90;;;;;;5066789;28;20080;-76
2022/05/07 04:18:40;;;;;;;31.33;23.45;;;11.80;99.90;;;;;;5071187;28;20052;-76
2022/05/07 04:21:06;;;;;;;31.33;24.08;;;11.90;99.90;;;;;;5070973;28;20594;-76
2022/05/07 04:23:32;;;;;;;30.40;23.40;;;11.80;99.90;;;;;;5070798;28;20079;-75
2022/05/07 04:25:58;;;;;;;33.13;24.23;;;11.80;99.90;;;;;;5070567;28;20147;-76
2022/05/07 04:28:24;;;;;;;31.55;23.52;;;11.90;99.90;;;;;;5088755;28;20055;-77
2022/05/07 04:30:49;;;;;;;30.73;24.10;;;12.10;99.90;;;;;;5073372;28;20044;-76
2022/05/07 04:33:18;;;;;;;32.92;25.25;;;11.90;99.90;;;;;;5072904;28;20448;-76
2022/05/07 04:35:43;;;;;;;30.65;24.35;;;11.90;99.90;;;;;;5091008;28;20141;-77
2022/05/07 04:38:09;;;;;;;29.33;23.02;;;11.90;99.90;;;;;;5089042;28;20066;-77
2022/05/07 04:40:35;;;;;;;32.30;24.85;;;11.90;99.90;;;;;;5090555;28;20127;-76
2022/05/07 04:43:00;;;;;;;35.47;24.13;;;12.00;99.90;;;;;;5090500;28;20253;-76
2022/05/07 04:45:27;;;;;;;29.05;24.35;;;12.10;99.90;;;;;;5071469;28;20046;-76
2022/05/07 04:47:53;;;;;;;31.83;25.65;;;12.00;99.90;;;;;;5088984;28;20051;-77
2022/05/07 04:50:19;;;;;;;35.35;25.05;;;12.00;99.90;;;;;;5090624;28;20403;-76
2022/05/07 04:52:45;;;;;;;28.42;23.63;;;12.10;99.90;;;;;;5072602;28;20067;-76
2022/05/07 04:55:11;;;;;;;32.38;25.25;;;12.00;99.90;;;;;;5090106;28;20040;-76
2022/05/07 04:57:36;;;;;;;33.22;24.92;;;12.10;99.90;;;;;;5072580;28;20043;-76
2022/05/07 05:00:05;;;;;;;30.80;25.88;;;12.30;99.90;;;;;;5055809;28;20048;-76
2022/05/07 05:02:30;;;;;;;33.92;25.35;;;12.10;99.90;;;;;;5072625;28;20059;-77
2022/05/07 05:04:56;;;;;;;37.22;25.65;;;12.10;99.90;;;;;;5090542;28;20040;-75
2022/05/07 05:07:21;;;;;;;31.25;25.60;;;12.10;99.90;;;;;;5083999;28;20055;-76
2022/05/07 05:09:47;;;;;;;35.08;25.58;;;12.20;99.90;;;;;;5051377;28;20040;-74
2022/05/07 05:12:13;;;;;;;37.92;27.42;;;12.20;99.90;;;;;;5079452;28;20090;-77
2022/05/07 05:17:23;;;;;;;35.20;27.42;;;12.20;99.90;;;;;;5086128;28;20044;-76
2022/05/07 05:19:49;;;;;;;34.08;26.65;;;12.20;99.90;;;;;;5071137;28;20056;-76
2022/05/07 05:22:14;;;;;;;37.55;27.60;;;12.30;99.90;;;;;;5070594;28;20040;-77
2022/05/07 05:24:40;;;;;;;40.17;27.55;;;12.30;99.90;;;;;;5070386;28;20105;-76
2022/05/07 05:27:06;;;;;;;35.65;26.92;;;12.30;99.90;;;;;;5069958;28;20047;-77
2022/05/07 05:29:32;;;;;;;38.15;27.65;;;12.40;99.90;;;;;;5070286;28;20127;-76
2022/05/07 05:31:59;;;;;;;31.20;24.65;;;12.40;99.90;;;;;;5052586;28;20041;-76
2022/05/07 05:34:25;;;;;;;32.50;25.52;;;12.80;99.90;;;;;;5052083;28;20500;-77
2022/05/07 05:36:50;;;;;;;34.45;27.63;;;12.50;99.90;;;;;;5052254;28;20048;-76
2022/05/07 05:39:16;;;;;;;38.08;27.40;;;12.50;99.90;;;;;;5069748;28;20403;-76
2022/05/07 05:41:44;;;;;;;35.85;26.73;;;12.60;99.90;;;;;;5070540;28;20084;-76
2022/05/07 05:44:10;;;;;;;32.30;25.65;;;12.60;99.90;;;;;;5070161;28;20419;-76
2022/05/07 05:46:36;;;;;;;36.13;26.63;;;12.60;99.90;;;;;;5070024;28;20053;-76
2022/05/07 05:49:02;;;;;;;35.00;25.75;;;12.70;99.90;;;;;;5069845;28;20043;-74
2022/05/07 05:51:28;;;;;;;32.60;24.88;;;12.70;99.90;;;;;;5050878;28;20052;-76
2022/05/07 05:53:53;;;;;;;29.27;24.00;;;12.80;99.90;;;;;;5070072;28;20047;-76
2022/05/07 05:56:19;;;;;;;33.70;25.60;;;12.90;99.90;;;;;;5052164;28;20053;-76
2022/05/07 05:58:45;;;;;;;30.83;25.20;;;12.90;99.90;;;;;;5069921;28;20041;-76
2022/05/07 06:01:11;;;;;;;30.25;25.38;;;13.00;99.90;;;;;;5051516;28;20056;-75
2022/05/07 06:03:37;;;;;;;30.40;24.40;;;13.30;99.90;;;;;;5051404;28;20063;-76
2022/05/07 06:06:03;;;;;;;34.00;25.30;;;13.20;99.90;;;;;;5052129;28;20128;-75
2022/05/07 06:08:28;;;;;;;32.35;25.13;;;13.50;99.90;;;;;;5070019;28;20127;-76
2022/05/07 06:10:55;;;;;;;29.80;24.45;;;13.30;99.90;;;;;;5069345;28;20139;-77
2022/05/07 06:13:21;;;;;;;36.65;25.70;;;13.30;99.90;;;;;;5068746;28;20040;-76
2022/05/07 06:15:51;;;;;;;32.58;25.23;;;13.30;99.90;;;;;;5069764;28;20113;-76
2022/05/07 06:18:18;;;;;;;32.28;24.58;;;13.50;99.90;;;;;;5069425;28;20060;-77
2022/05/07 06:20:44;;;;;;;34.58;24.95;;;13.40;99.90;;;;;;5069297;28;20127;-75
2022/05/07 06:23:10;;;;;;;33.35;26.05;;;13.50;99.90;;;;;;5072940;28;20139;-76
2022/05/07 06:28:22;;;;;;;26.77;22.65;;;13.60;99.90;;;;;;5073001;28;20102;-75
2022/05/07 06:30:48;;;;;;;30.02;21.38;;;13.90;99.90;;;;;;5055167;28;20119;-76
2022/05/07 06:33:14;;;;;;;28.92;20.92;;;13.70;99.90;;;;;;5073416;28;20096;-76
2022/05/07 06:35:40;;;;;;;26.10;20.52;;;13.70;99.90;;;;;;5055413;28;20083;-75
2022/05/07 06:38:05;;;;;;;24.30;20.23;;;14.00;99.90;;;;;;5073136;28;20101;-75
2022/05/07 06:40:31;;;;;;;31.38;21.98;;;13.80;99.90;;;;;;5054172;28;20794;-76
2022/05/07 06:42:57;;;;;;;26.65;22.25;;;13.90;99.90;;;;;;5072556;28;20506;-76
2022/05/07 06:45:23;;;;;;;25.88;21.75;;;13.90;99.90;;;;;;5055252;28;20400;-76
2022/05/07 06:47:48;;;;;;;25.38;21.88;;;13.90;99.90;;;;;;5038159;28;20152;-76
2022/05/07 06:50:14;;;;;;;31.52;22.77;;;14.00;99.90;;;;;;5083248;28;20113;-75
2022/05/07 06:52:44;;;;;;;29.25;22.35;;;14.10;99.90;;;;;;5093233;28;20044;-76
2022/05/07 06:55:14;;;;;;;34.08;22.60;;;14.20;99.90;;;;;;5092831;28;20084;-76
2022/05/07 06:57:40;;;;;;;26.70;22.27;;;14.50;99.90;;;;;;5093266;28;20115;-77
2022/05/07 07:00:06;;;;;;;30.65;22.58;;;14.40;99.90;;;;;;5092947;28;20055;-74
2022/05/07 07:02:32;;;;;;;28.80;22.88;;;14.50;99.90;;;;;;5072822;28;20058;-76
2022/05/07 07:05:00;;;;;;;32.55;23.20;;;14.60;99.90;;;;;;5074831;28;20044;-75
2022/05/07 07:07:26;;;;;;;29.75;23.05;;;14.80;99.90;;;;;;5075053;28;20110;-77
2022/05/07 07:09:52;;;;;;;31.88;23.83;;;14.80;99.90;;;;;;5074639;28;20059;-74
2022/05/07 07:12:20;;;;;;;34.50;22.52;;;15.00;99.90;;;;;;5072815;28;20059;-75
2022/05/07 07:14:47;;;;;;;34.83;24.45;;;15.00;99.90;;;;;;5074713;28;20422;-76
2022/05/07 07:17:13;;;;;;;30.10;23.63;;;15.20;99.90;;;;;;5074818;28;20386;-73
2022/05/07 07:19:41;;;;;;;32.35;24.58;;;15.20;99.90;;;;;;5074522;28;20059;-76
2022/05/07 07:22:07;;;;;;;28.63;24.90;;;15.30;99.90;;;;;;5090751;28;20067;-73
2022/05/07 07:24:33;;;;;;;31.45;24.85;;;15.50;99.90;;;;;;5063276;28;20153;-76
2022/05/07 07:26:58;;;;;;;34.05;24.52;;;15.60;99.90;;;;;;5071970;28;20503;-75
2022/05/07 07:29:24;;;;;;;30.35;25.13;;;15.60;99.90;;;;;;5054139;28;20048;-76
2022/05/07 07:31:50;;;;;;;30.88;24.10;;;15.70;99.90;;;;;;5072394;28;20045;-74
2022/05/07 07:34:16;;;;;;;32.67;24.63;;;15.70;99.90;;;;;;5071167;28;20085;-78
2022/05/07 07:36:44;;;;;;;31.38;24.40;;;15.90;99.90;;;;;;5072321;28;20455;-76
2022/05/07 07:39:10;;;;;;;32.58;25.10;;;15.90;99.90;;;;;;5053744;28;20048;-75
2022/05/07 07:41:36;;;;;;;27.95;22.90;;;15.90;99.90;;;;;;5053643;28;20099;-75
2022/05/07 07:44:02;;;;;;;31.70;23.65;;;16.00;99.90;;;;;;5054010;28;20426;-76
2022/05/07 07:49:25;;;;;;;30.27;23.88;;;16.20;99.90;;;;;;4973790;28;20065;-78
2022/05/07 07:51:51;;;;;;;30.55;23.83;;;16.30;99.90;;;;;;4982720;28;20051;-78
2022/05/07 07:54:17;;;;;;;25.33;22.10;;;16.30;99.90;;;;;;4970837;28;20042;-77
2022/05/07 07:56:45;;;;;;;29.90;23.77;;;16.40;99.90;;;;;;4954764;28;20090;-78
2022/05/07 07:59:11;;;;;;;29.92;23.15;;;16.60;99.90;;;;;;4970665;28;20070;-80
2022/05/07 08:01:37;;;;;;;27.67;22.98;;;16.60;99.90;;;;;;4954191;28;20439;-76
2022/05/07 08:04:04;;;;;;;28.70;23.00;;;16.60;99.90;;;;;;4954857;28;20065;-77
2022/05/07 08:06:31;;;;;;;29.02;22.98;;;16.70;99.90;;;;;;4970192;28;20062;-78
2022/05/07 08:11:41;;;;;;;33.97;23.03;;;16.90;99.90;;;;;;4970431;28;20499;-77
2022/05/07 08:14:08;;;;;;;28.92;22.67;;;16.80;99.90;;;;;;4971421;28;20118;-79
2022/05/07 08:16:34;;;;;;;30.30;22.25;;;16.90;99.90;;;;;;4953849;28;20049;-76
2022/05/07 08:19:00;;;;;;;30.17;22.23;;;16.90;99.90;;;;;;4970213;28;20125;-78
2022/05/07 08:21:26;;;;;;;23.50;20.98;;;17.00;99.90;;;;;;4970064;28;20050;-78
2022/05/07 08:23:52;;;;;;;31.33;23.45;;;16.80;99.90;;;;;;4972785;28;20082;-79
2022/05/07 08:26:18;;;;;;;28.52;22.85;;;16.80;99.90;;;;;;5051290;28;20128;-78
2022/05/07 08:28:44;;;;;;;31.55;22.58;;;16.80;99.90;;;;;;5071428;28;20409;-78
2022/05/07 08:31:10;;;;;;;29.88;21.83;;;16.90;99.90;;;;;;5071186;28;20052;-77
2022/05/07 08:33:40;;;;;;;26.55;21.77;;;16.70;99.90;;;;;;5070997;28;20051;-77
2022/05/07 08:36:05;;;;;;;30.83;21.75;;;16.70;99.90;;;;;;5070812;28;20048;-78
2022/05/07 08:38:31;;;;;;;33.50;23.00;;;16.70;99.90;;;;;;5053086;28;20510;-79
2022/05/07 08:40:59;;;;;;;27.85;21.95;;;16.70;99.90;;;;;;5070996;28;20045;-78
2022/05/07 08:43:24;;;;;;;29.70;23.52;;;16.80;99.90;;;;;;5053061;28;20083;-78
2022/05/07 08:45:51;;;;;;;28.33;21.02;;;16.70;99.90;;;;;;5070471;28;20084;-78
2022/05/07 08:48:18;;;;;;;29.85;22.15;;;16.60;99.90;;;;;;5062322;28;20078;-77
2022/05/07 08:50:45;;;;;;;27.85;22.42;;;16.60;99.90;;;;;;5086992;28;20060;-79
2022/05/07 08:53:10;;;;;;;28.20;20.88;;;16.70;99.90;;;;;;5091209;28;20040;-78
2022/05/07 08:55:36;;;;;;;25.35;20.23;;;16.70;99.90;;;;;;5072374;28;20046;-78
2022/05/07 08:58:02;;;;;;;27.35;21.00;;;16.70;99.90;;;;;;5090890;28;20040;-79
2022/05/07 09:00:29;;;;;;;29.27;21.45;;;16.80;99.90;;;;;;5090777;28;20441;-77
2022/05/07 09:03:00;;;;;;;26.05;20.95;;;16.80;99.90;;;;;;5085956;28;20044;-77
2022/05/07 09:05:34;;;;;;;31.60;21.60;;;16.80;99.90;;;;;;5090890;28;21162;-78
2022/05/07 09:08:00;;;;;;;25.52;22.75;;;16.80;99.90;;;;;;5090836;28;20048;-81
2022/05/07 09:10:28;;;;;;;27.23;22.02;;;16.80;99.90;;;;;;5091038;28;20043;-80
2022/05/07 09:13:14;;;;;;;29.45;22.58;;;17.10;99.90;;;;;;5072552;28;20119;-80
2022/05/07 09:15:54;;;;;;;27.60;22.02;;;17.00;99.90;;;;;;5089201;28;20065;-82
2022/05/07 09:18:21;;;;;;;31.85;22.75;;;17.10;99.90;;;;;;5090474;28;20048;-80
2022/05/07 09:21:16;;;;;;;30.83;24.25;;;17.10;99.90;;;;;;5090334;28;20044;-79
2022/05/07 09:23:44;;;;;;;39.00;26.80;;;17.20;99.90;;;;;;5090677;28;20056;-80
2022/05/07 09:26:10;;;;;;;41.47;28.02;;;17.30;99.90;;;;;;5090362;28;20040;-79
2022/05/07 09:28:38;;;;;;;46.50;31.83;;;17.40;99.90;;;;;;5090560;28;20059;-78
2022/05/07 09:31:04;;;;;;;46.40;32.00;;;17.40;99.90;;;;;;5089993;28;20078;-77
2022/05/07 09:33:35;;;;;;;41.35;30.90;;;17.60;99.90;;;;;;5072178;28;20097;-80
2022/05/07 09:36:11;;;;;;;46.50;31.35;;;17.70;99.90;;;;;;5072137;28;20054;-77
2022/05/07 09:38:38;;;;;;;40.45;29.83;;;17.80;99.90;;;;;;5090314;28;20055;-78
2022/05/07 09:41:04;;;;;;;38.25;28.38;;;17.90;99.90;;;;;;5090141;28;20437;-79
2022/05/07 09:43:31;;;;;;;42.80;28.33;;;18.00;99.90;;;;;;5070870;28;20040;-76
2022/05/07 09:45:57;;;;;;;36.58;27.27;;;18.00;99.90;;;;;;5089816;28;20495;-78
2022/05/07 09:48:23;;;;;;;39.80;27.90;;;18.10;99.90;;;;;;5090335;28;20043;-79
2022/05/07 09:50:50;;;;;;;43.47;28.80;;;18.00;99.90;;;;;;5071702;28;20064;-79
2022/05/07 09:58:49;;;;;;;39.13;28.00;;;18.00;99.90;;;;;;5076139;28;20052;-76
2022/05/07 10:01:14;;;;;;;40.72;26.83;;;18.00;99.90;;;;;;5094406;28;20058;-80
2022/05/07 10:04:18;;;;;;;40.53;27.77;;;18.00;99.90;;;;;;5076143;28;20044;-77
2022/05/07 10:07:14;;;;;;;36.70;27.92;;;18.00;99.90;;;;;;5094530;28;20051;-79
2022/05/07 10:09:45;;;;;;;37.75;24.92;;;18.10;99.90;;;;;;5094240;28;20558;-81
2022/05/07 10:12:19;;;;;;;41.08;29.73;;;18.10;99.90;;;;;;5094304;28;20048;-78
2022/05/07 10:14:44;;;;;;;44.08;28.50;;;18.20;99.90;;;;;;5094261;28;20070;-77
2022/05/07 10:17:12;;;;;;;42.03;27.92;;;18.40;99.90;;;;;;5076155;28;20419;-77
2022/05/07 10:19:43;;;;;;;42.25;28.20;;;18.50;99.90;;;;;;5093345;28;20150;-78
2022/05/07 10:22:23;;;;;;;40.15;28.58;;;18.50;99.90;;;;;;5074996;28;20120;-78
2022/05/07 10:25:02;;;;;;;43.70;28.25;;;18.60;99.90;;;;;;5075592;28;20043;-79
2022/05/07 10:27:33;;;;;;;42.22;27.85;;;18.90;99.90;;;;;;5093817;28;20115;-79
2022/05/07 10:30:03;;;;;;;40.17;28.38;;;18.70;99.90;;;;;;5075129;28;20055;-78
2022/05/07 10:32:29;;;;;;;42.22;28.83;;;18.70;99.90;;;;;;5075767;28;20144;-79
2022/05/07 10:34:56;;;;;;;39.03;28.35;;;18.80;99.90;;;;;;5075610;28;20453;-86
2022/05/07 10:37:22;;;;;;;44.80;29.33;;;18.80;99.90;;;;;;5093264;28;20415;-76
2022/05/07 10:39:54;;;;;;;44.45;28.73;;;18.80;99.90;;;;;;5092842;28;20052;-78
2022/05/07 10:42:21;;;;;;;38.50;28.33;;;18.80;99.90;;;;;;5093452;28;20059;-80
2022/05/07 10:44:48;;;;;;;42.35;27.92;;;18.80;99.90;;;;;;5093546;28;20047;-77
2022/05/07 10:47:17;;;;;;;40.45;28.75;;;18.60;99.90;;;;;;5093097;28;20040;-77
2022/05/07 10:50:09;;;;;;;42.70;29.35;;;18.60;99.90;;;;;;5081138;28;20052;-76
2022/05/07 10:52:35;;;;;;;41.67;28.73;;;18.60;99.90;;;;;;5092885;28;20044;-81
2022/05/07 10:55:04;;;;;;;41.53;28.35;;;18.50;99.90;;;;;;5093142;28;20040;-77
2022/05/07 10:57:45;;;;;;;42.05;30.02;;;18.40;99.90;;;;;;5093360;28;20095;-80
2022/05/07 11:00:21;;;;;;;46.13;30.73;;;18.40;99.90;;;;;;5075159;28;20474;-78
2022/05/07 11:02:51;;;;;;;47.05;33.25;;;18.30;99.90;;;;;;5092528;28;20078;-79
2022/05/07 11:05:28;;;;;;;46.67;33.65;;;18.20;99.90;;;;;;5092281;28;20093;-82
2022/05/07 11:07:58;;;;;;;55.45;35.80;;;18.20;99.90;;;;;;5091969;28;20134;-79
2022/05/07 11:10:24;;;;;;;52.45;35.67;;;18.20;99.90;;;;;;5093094;28;20044;-81
2022/05/07 11:12:50;;;;;;;51.38;35.03;;;18.20;99.90;;;;;;5074369;28;20664;-79
2022/05/07 11:15:25;;;;;;;53.42;35.38;;;18.10;99.90;;;;;;5074070;28;20154;-78
2022/05/07 11:17:51;;;;;;;51.30;34.08;;;17.90;99.90;;;;;;5093337;28;20053;-76
2022/05/07 11:20:32;;;;;;;52.20;36.17;;;17.90;99.90;;;;;;5091077;28;21114;-78
2022/05/07 11:23:00;;;;;;;50.95;34.95;;;17.80;99.90;;;;;;5073931;28;20361;-80
2022/05/07 11:25:25;;;;;;;51.33;34.20;;;17.80;99.90;;;;;;5074440;28;20055;-77
2022/05/07 11:27:53;;;;;;;54.58;35.97;;;17.70;99.90;;;;;;5073663;28;20044;-78
2022/05/07 11:30:19;;;;;;;49.13;32.17;;;17.70;99.90;;;;;;5092277;28;20044;-78
2022/05/07 11:32:45;;;;;;;49.08;33.33;;;17.80;99.90;;;;;;5089064;28;20123;-80
2022/05/07 11:35:10;;;;;;;45.42;30.77;;;17.90;99.90;;;;;;5081525;28;20115;-78
2022/05/07 11:37:44;;;;;;;47.53;30.88;;;17.80;99.90;;;;;;5092830;28;20537;-80
2022/05/07 11:40:11;;;;;;;44.03;29.55;;;17.90;99.90;;;;;;5092809;28;20076;-79
2022/05/07 11:42:46;;;;;;;41.50;27.23;;;17.80;99.90;;;;;;5074435;28;20135;-80
2022/05/07 11:45:27;;;;;;;38.08;26.40;;;17.90;99.90;;;;;;5091636;28;20048;-80
2022/05/07 11:48:18;;;;;;;37.92;24.13;;;18.00;99.90;;;;;;5092080;28;20502;-77
2022/05/07 11:50:53;;;;;;;32.53;21.10;;;18.00;99.90;;;;;;5091666;28;20048;-77
2022/05/07 11:53:22;;;;;;;29.40;20.65;;;17.90;99.90;;;;;;5091461;28;20036;-79
2022/05/07 11:55:49;;;;;;;22.67;16.05;;;18.10;99.90;;;;;;5091610;28;20113;-79
2022/05/07 11:58:20;;;;;;;23.77;16.15;;;18.10;99.90;;;;;;5091910;28;20051;-80
2022/05/07 12:00:51;;;;;;;18.33;10.75;;;18.10;99.90;;;;;;5091855;28;20058;-77
2022/05/07 12:03:25;;;;;;;11.85;8.00;;;18.30;99.90;;;;;;5092073;28;20048;-79
2022/05/07 12:05:52;;;;;;;13.48;8.02;;;18.30;99.90;;;;;;5087162;28;20447;-80
2022/05/07 12:08:20;;;;;;;12.38;8.07;;;18.50;99.90;;;;;;5092080;28;20040;-79
2022/05/07 12:10:50;;;;;;;16.05;9.20;;;18.50;99.90;;;;;;5073829;28;20044;-79
2022/05/07 12:13:17;;;;;;;12.07;8.45;;;18.50;99.90;;;;;;5091857;28;20044;-78
2022/05/07 12:18:28;;;;;;;11.32;8.35;;;18.90;99.90;;;;;;5091644;28;20624;-78
2022/05/07 12:20:54;;;;;;;13.27;9.48;;;18.90;99.90;;;;;;5090952;28;20138;-78
2022/05/07 12:31:33;;;;;;;13.57;9.07;;;18.60;99.90;;;;;;5091679;28;19978;-81
2022/05/07 12:33:59;;;;;;;16.85;9.25;;;18.70;99.90;;;;;;5091262;28;20072;-79
2022/05/07 12:36:26;;;;;;;13.23;9.50;;;18.80;99.90;;;;;;5091099;28;20093;-80
2022/05/07 12:38:52;;;;;;;16.38;11.05;;;18.70;99.90;;;;;;5091190;28;20513;-77
2022/05/07 12:41:18;;;;;;;18.13;10.85;;;18.70;99.90;;;;;;5091139;28;20116;-79
2022/05/07 12:43:44;;;;;;;16.45;10.07;;;18.70;99.90;;;;;;5091160;28;20547;-80
2022/05/07 12:46:10;;;;;;;15.50;10.13;;;18.70;99.90;;;;;;5091190;28;20501;-80
2022/05/07 12:48:36;;;;;;;13.98;9.10;;;18.70;99.90;;;;;;5091135;28;20040;-80
2022/05/07 12:51:01;;;;;;;12.70;8.57;;;18.90;99.90;;;;;;5090927;28;20490;-80
2022/05/07 12:53:27;;;;;;;15.02;8.70;;;19.10;99.90;;;;;;5090955;28;20046;-79
2022/05/07 12:55:53;;;;;;;14.98;9.27;;;19.30;99.90;;;;;;5091202;28;20052;-78
2022/05/07 12:58:18;;;;;;;15.30;9.10;;;19.50;99.90;;;;;;5090875;28;20048;-79
2022/05/07 13:00:44;;;;;;;14.07;9.25;;;19.40;99.90;;;;;;5090825;28;20477;-80
2022/05/07 13:03:10;;;;;;;12.70;8.90;;;19.60;99.90;;;;;;5072592;28;20087;-81
2022/05/07 13:05:38;;;;;;;11.60;7.03;;;19.70;99.90;;;;;;5090909;28;20450;-78
2022/05/07 13:08:05;;;;;;;11.60;8.27;;;19.60;99.90;;;;;;5090462;28;20093;-77
2022/05/07 13:10:32;;;;;;;15.32;10.57;;;19.60;99.90;;;;;;5090760;28;20194;-79